RJFY(METAR)
05/22 00:00
METAR RJFY 211500Z VRB02KT 9999 FEW015 SCT025 16/15 Q1008 RMK 1CU015
4SC025 A2977=
戻る
トップページへ戻る
IMOC Co,.Ltd.